Tiempo atmosférico en la estación meteorológica de Alpandeire, Málaga (680 m.)



Fecha
DESCASC
Temp. máxima en grados centígrados (hora)
DESCASC
Temp. mínima en grados centígrados (hora)
DESCASC
Temp. media en grados centígrados
DESCASC
Racha de viento máxima en m/sg (hora)
DESCASC
Velocidad máxima media en intervalos de 10 minutos(hora)
DESCASC
Precipitaciones diarias en mm
DESCASC
Precipitaciones de 00:00 a 06:00 en mm
DESCASC
Precipitaciones de 06:00 a 12:00 en mm
DESCASC
Precipitaciones de 12:00 a 18:00 en mm
DESCASC
Precipitaciones de 18:00 a 24:00 en mm
DESCASC
31-03-2020 13.5 (14:40) 9.2 (06:20) 11.3 11.67 (17:30) 6.11 (17:30) 37.6 14.4 5.8 14.6 2.8
30-03-2020 16.1 (14:00) 7.6 (08:10) 11.9 5.83 (14:00) 3.33 (14:00) 0.8 0 0 0 0.8
29-03-2020 16.3 (15:30) 5.9 (00:00) 11.1 6.11 (03:20) 3.89 (03:20) 0 0 0 0 0
28-03-2020 15 (12:30) 6.8 (00:00) 10.9 8.61 (13:10) 3.61 (12:00) 0 0 0 0 0
27-03-2020 15.8 (15:30) 6.5 (00:00) 11.2 7.5 (15:00) 4.17 (13:20) 0 0 0 0 0
26-03-2020 17 (14:00) 6.8 (00:00) 11.9 11.11 (15:40) 5.83 (15:10) 0 0 0 0 0
25-03-2020 10.4 (00:00) 7.8 (00:00) 9.1 6.11 (08:00) 2.5 (07:00) 15.2 5.2 9.6 0.4 0
24-03-2020 14 (18:30) 8.8 (00:00) 11.4 7.5 (13:20) 3.33 (13:10) 5.6 0 4.6 0.6 0.4
23-03-2020 14.9 (15:20) 5.2 (00:00) 10 10 (14:00) 4.17 (22:20) 1.6 0 0.2 0.6 0.8
22-03-2020 12.3 (14:20) 5.1 (08:30) 8.7 7.5 (16:10) 3.06 (13:10) 4 3.2 0 0.4 0.4
21-03-2020 11.6 (12:50) 6.3 (00:00) 9 12.78 (13:30) 4.17 (13:30) 48 31.2 0.2 14.4 2.2
20-03-2020 14.2 (15:20) 9.8 (00:00) 12 11.94 (23:30) 3.89 (13:50) 6.2 0 0 0 6.2
19-03-2020 13.3 (12:40) 10.6 (00:00) 12 12.22 (08:00) 5 (08:00) 0 0 0 0 0
18-03-2020 14.9 (16:20) 11.5 (00:00) 13.2 17.5 (13:00) 7.5 (13:00) 0 0 0 0 0
17-03-2020 12.8 (23:59) 4.5 (00:00) 8.7 11.67 (15:10) 5.28 (15:00) 8.8 0.6 7.6 0.2 0.4
16-03-2020 13.6 (15:10) 7.5 (00:00) 10.6 13.89 (10:10) 7.22 (09:10) 0 0 0 0 0
15-03-2020 20.1 (16:40) 9.6 (00:00) 14.9 7.78 (05:40) 4.17 (09:50) 0 0 0 0 0
14-03-2020 21 (15:10) 8.7 (00:00) 14.8 6.11 (15:30) 3.61 (15:00) 0 0 0 0 0
13-03-2020 24 (16:20) 12.4 (05:20) 18.2 4.72 (16:50) 3.06 (16:50) 0 0 0 0 0
12-03-2020 25.9 (16:20) 15.3 (00:00) 20.6 8.61 (02:10) 5.28 (03:40) 0 0 0 0 0
11-03-2020 26.5 (17:10) 12.5 (00:00) 19.5 10.83 (13:20) 5.28 (13:20) 0 0 0 0 0
10-03-2020 22.9 (14:30) 12.1 (00:00) 17.5 8.33 (03:40) 3.61 (03:40) 0 0 0 0 0
09-03-2020 22.3 (16:20) 12 (00:00) 17.1 12.78 (21:00) 7.22 (20:50) 0 0 0 0 0
08-03-2020 22.3 (14:50) 6.7 (00:00) 14.5 8.33 (20:20) 4.72 (20:20) 0 0 0 0 0
07-03-2020 19.9 (15:50) 5.6 (00:00) 12.7 9.17 (00:10) 3.61 (00:20) 0 0 0 0 0
06-03-2020 16.2 (15:50) 6.9 (00:00) 11.6 15.28 (05:50) 7.5 (05:50) 0 0 0 0 0
05-03-2020 16 (14:00) 9.9 (00:00) 12.9 13.33 (12:40) 6.94 (12:50) 0 0 0 0 0
04-03-2020 20.7 (15:30) 9.2 (00:00) 15 10 (11:40) 4.72 (12:30) 0 0 0 0 0
03-03-2020 16.8 (13:50) 7.3 (00:00) 12 9.72 (16:30) 6.39 (15:00) 0 0 0 0 0
02-03-2020 16.3 (14:00) 10.5 (00:00) 13.4 16.11 (13:50) 9.17 (14:10) 1.8 0 1.8 0 0

Gráficas

Temp. máximas Temp. mínimas Temp. medias Precipitaciones Rachas de viento máximas Velocidades máximas media en intervalos de 10 minutos

Datos horarios

Fecha y hora oficial Temperatura (ºC) Velocidad del viento (km/h) Dirección del viento Racha (km/h) Dirección de racha Precipitación (mm) Presión (hPa) Tendencia (hPa) Humedad (%)
2020-03-31 23:00:00 10 0 Calma 9 Sudoeste 0 -- -- 93
2020-03-31 22:00:00 10.1 2 Sudoeste 16 Sudoeste 0.4 -- -- 93
2020-03-31 21:00:00 10.3 9 Oeste 24 Sudoeste 2.4 -- -- 94
2020-03-31 20:00:00 11 12 Sudoeste 26 Sudoeste 0 -- -- 93
2020-03-31 19:00:00 11.7 7 Sudoeste 22 Sudoeste 0 -- -- 91
2020-03-31 18:00:00 11.8 8 Sudoeste 42 Oeste 5.6 -- -- 94
2020-03-31 17:00:00 12.2 10 Sudoeste 26 Sudoeste 1.4 -- -- 91
2020-03-31 16:00:00 12 7 Oeste 22 Sudoeste 2.6 -- -- 92
2020-03-31 15:00:00 13.4 7 Sudoeste 19 Oeste 0.2 -- -- 88
2020-03-31 14:00:00 11.4 5 Sudoeste 23 Sudoeste 2 -- -- 94
2020-03-31 13:00:00 10.8 11 Oeste 20 Oeste 2.8 -- -- 94
2020-03-31 12:00:00 11.2 9 Sudoeste 21 Sudoeste 0.2 -- -- 92
2020-03-31 11:00:00 10.4 8 Sudoeste 23 Sur 0 -- -- 95
2020-03-31 10:00:00 10 4 Sudoeste 14 Oeste 0 -- -- 95
2020-03-31 09:00:00 9.6 2 Oeste 15 Sur 0.2 -- -- 94
2020-03-31 08:00:00 9.3 3 Sudeste 9 Este 4 -- -- 93
2020-03-31 07:00:00 9.2 2 Este 12 Oeste 1.4 -- -- 93
2020-03-31 06:00:00 9.3 3 Oeste 6 Oeste 1.4 -- -- 94
2020-03-31 05:00:00 9.3 5 Oeste 18 Sudeste 0.6 -- -- 93
2020-03-31 04:00:00 9.5 7 Este 24 Este 3.4 -- -- 88
2020-03-31 03:00:00 9.7 6 Sudoeste 36 Este 5.4 -- -- 90
2020-03-31 02:00:00 10.2 8 Sudeste 24 Sudeste 2.6 -- -- 89
2020-03-31 01:00:00 10.2 5 Sudeste 14 Sudeste 1 -- -- 85
2020-03-31 00:00:00 10.6 6 Este 15 Este 0.4 -- -- 83
2020-03-30 23:00:00 10.5 4 Este 13 Sudeste 0.4 -- -- 76
2020-03-30 22:00:00 11.6 3 Sudoeste 12 Sudoeste 0 -- -- 76
2020-03-30 21:00:00 12.1 3 Sudeste 10 Sur 0 -- -- 70
2020-03-30 20:00:00 12.7 3 Sudeste 12 Sudoeste 0 -- -- 67
2020-03-30 19:00:00 13.2 6 Sudoeste 15 Sudoeste 0 -- -- 66
2020-03-30 18:00:00 13.7 8 Oeste 19 Oeste 0 -- -- 68
2020-03-30 17:00:00 14.3 8 Oeste 19 Oeste 0 -- -- 67
2020-03-30 16:00:00 14.9 8 Sudoeste 17 Sudoeste 0 -- -- 63
2020-03-30 15:00:00 15.8 9 Oeste 17 Oeste 0 -- -- 56
2020-03-30 14:00:00 16.1 12 Oeste 21 Sudoeste 0 -- -- 47
2020-03-30 13:00:00 14.3 6 Oeste 14 Oeste 0 -- -- 54
2020-03-30 12:00:00 12.8 5 Sudoeste 9 Sur 0 -- -- 63
2020-03-30 11:00:00 11 0 Calma 5 Sudoeste 0 -- -- 78
2020-03-30 10:00:00 9.9 0 Calma 3 Noroeste 0 -- -- 88
2020-03-30 09:00:00 8.2 0 Calma 5 Nordeste 0 -- -- 91
2020-03-30 08:00:00 7.7 0 Calma 3 Norte 0 -- -- 89
2020-03-30 07:00:00 7.8 0 Calma 3 Este 0 -- -- 88
2020-03-30 06:00:00 8.5 0 Calma 3 Nordeste 0 -- -- 87
2020-03-30 05:00:00 8.9 3 Este 5 Este 0 -- -- 84
2020-03-30 04:00:00 9.4 0 Calma 4 Nordeste 0 -- -- 84
2020-03-30 03:00:00 9.4 2 Nordeste 5 Nordeste 0 -- -- 84
2020-03-30 02:00:00 9 2 Este 4 Nordeste 0 -- -- 82
2020-03-30 01:00:00 10.3 2 Nordeste 8 Nordeste 0 -- -- 79
2020-03-30 00:00:00 10.4 0 Calma 5 Noroeste 0 -- -- 77
2020-03-29 23:00:00 10.2 0 Calma 6 Este 0 -- -- 76
2020-03-29 22:00:00 10.8 3 Este 7 Noroeste 0 -- -- 74
2020-03-29 21:00:00 11.9 3 Noroeste 12 Noroeste 0 -- -- 71
2020-03-29 20:00:00 13.8 4 Oeste 10 Oeste 0 -- -- 65
2020-03-29 19:00:00 14 2 Sudoeste 8 Oeste 0 -- -- 63
2020-03-29 18:00:00 14.3 4 Sudoeste 12 Oeste 0 -- -- 63
2020-03-29 17:00:00 14.7 5 Oeste 16 Sudoeste 0 -- -- 63
2020-03-29 16:00:00 15.5 6 Sur 15 Sudoeste 0 -- -- 59
2020-03-29 15:00:00 15.4 7 Sur 18 Sur 0 -- -- 60
2020-03-29 14:00:00 15 4 Sudoeste 17 Sudoeste 0 -- -- 65
2020-03-29 13:00:00 14.8 8 Sudoeste 16 Oeste 0 -- -- 56
2020-03-29 12:00:00 14.1 5 Sudeste 15 Sur 0 -- -- 58
2020-03-29 11:00:00 12.1 7 Sudoeste 12 Sudoeste 0 -- -- 65
2020-03-29 10:00:00 9.2 2 Sudeste 4 Este 0 -- -- 84
2020-03-29 09:00:00 6 0 Calma 4 Este 0 -- -- 87
2020-03-29 08:00:00 6.1 0 Calma 7 Este 0 -- -- 85
2020-03-29 07:00:00 6.2 2 Este 5 Nordeste 0 -- -- 85
2020-03-29 06:00:00 6.9 0 Calma 5 Oeste 0 -- -- 85
2020-03-29 05:00:00 8.2 2 Oeste 18 Este 0 -- -- 81
2020-03-29 03:00:00 8.5 12 Este 21 Nordeste 0 -- -- 83
2020-03-29 01:00:00 8.3 13 Este 21 Este 0 -- -- 83
2020-03-29 00:00:00 8.7 7 Este 17 Nordeste 0 -- -- 83
2020-03-28 23:00:00 9.4 7 Este 16 Este 0 -- -- 84
2020-03-28 22:00:00 9.5 6 Este 14 Este 0 -- -- 87
2020-03-28 21:00:00 9.7 3 Sur 13 Sudeste 0 -- -- 87
2020-03-28 20:00:00 10 4 Sur 11 Este 0 -- -- 87
2020-03-28 19:00:00 10.4 3 Este 13 Este 0 -- -- 83
2020-03-28 18:00:00 10.9 5 Sudeste 15 Sudeste 0 -- -- 81
2020-03-28 17:00:00 12 8 Sudeste 18 Sudoeste 0 -- -- 77
2020-03-28 16:00:00 13.8 12 Sur 25 Sur 0 -- -- 73
2020-03-28 15:00:00 12.7 9 Sur 20 Este 0 -- -- 75
2020-03-28 14:00:00 13 9 Sur 31 Sur 0 -- -- 74
2020-03-28 13:00:00 14.4 12 Sur 25 Sudoeste 0 -- -- 66
2020-03-28 12:00:00 14.5 13 Sur 22 Sur 0 -- -- 62
2020-03-28 11:00:00 13.4 8 Sudeste 19 Sudoeste 0 -- -- 65
2020-03-28 10:00:00 12.1 5 Sudoeste 16 Este 0 -- -- 76
2020-03-28 09:00:00 10.4 4 Sudeste 16 Este 0 -- -- 79
2020-03-28 08:00:00 8.4 4 Este 13 Este 0 -- -- 87
2020-03-28 07:00:00 7.2 2 Este 4 Nordeste 0 -- -- 91
2020-03-28 06:00:00 6.9 0 Calma 3 Este 0 -- -- 89
2020-03-28 05:00:00 7.5 3 Nordeste 4 Nordeste 0 -- -- 89
2020-03-28 04:00:00 8.2 2 Este 4 Norte 0 -- -- 89
2020-03-28 03:00:00 8.6 0 Calma 12 Este 0 -- -- 85
2020-03-28 02:00:00 8.6 5 Nordeste 10 Este 0 -- -- 88
2020-03-28 01:00:00 7.9 0 Calma 5 Este 0 -- -- 89
2020-03-28 00:00:00 7.7 2 Este 5 Sudeste 0 -- -- 86
2020-03-27 23:00:00 8.4 0 Calma 4 Este 0 -- -- 83
2020-03-27 22:00:00 9.6 0 Calma 4 Oeste 0 -- -- 79
2020-03-27 21:00:00 10.7 3 Sudoeste 6 Sur 0 -- -- 73
2020-03-27 20:00:00 11.9 4 Sudoeste 13 Sur 0 -- -- 69
2020-03-27 19:00:00 13.5 7 Sudoeste 13 Sudoeste 0 -- -- 65
2020-03-27 18:00:00 13.9 5 Oeste 18 Oeste 0 -- -- 63
2020-03-27 17:00:00 15.8 10 Oeste 24 Oeste 0 -- -- 55
2020-03-27 16:00:00 15.2 7 Oeste 20 Sudoeste 0 -- -- 54
2020-03-27 15:00:00 15.1 12 Oeste 27 Oeste 0 -- -- 58
2020-03-27 14:00:00 14.5 13 Oeste 26 Sudoeste 0 -- -- 60
2020-03-27 13:00:00 12.6 8 Sudoeste 22 Sudoeste 0 -- -- 72
2020-03-27 12:00:00 14.3 11 Sudoeste 23 Sudoeste 0 -- -- 71
2020-03-27 11:00:00 13.5 5 Sudoeste 18 Oeste 0 -- -- 60
2020-03-27 10:00:00 11.7 6 Oeste 13 Noroeste 0 -- -- 64
2020-03-27 09:00:00 9.3 2 Sur 6 Sur 0 -- -- 78
2020-03-27 08:00:00 6.6 2 Nordeste 12 Nordeste 0 -- -- 79
2020-03-27 07:00:00 6.6 3 Nordeste 12 Nordeste 0 -- -- 77
2020-03-27 06:00:00 6.9 6 Nordeste 10 Nordeste 0 -- -- 84
2020-03-27 05:00:00 7.1 4 Nordeste 9 Nordeste 0 -- -- 80
2020-03-27 04:00:00 7.3 2 Nordeste 5 Nordeste 0 -- -- 82
2020-03-27 03:00:00 8.2 0 Calma 7 Noroeste 0 -- -- 83
2020-03-27 02:00:00 8.9 2 Nordeste 5 Este 0 -- -- 82
2020-03-27 01:00:00 9.7 0 Calma 9 Nordeste 0 -- -- 79
2020-03-27 00:00:00 10.4 2 Sur 9 Noroeste 0 -- -- 75
2020-03-26 23:00:00 11.5 5 Norte 24 Noroeste 0 -- -- 71
2020-03-26 22:00:00 11.9 12 Noroeste 24 Noroeste 0 -- -- 69
2020-03-26 21:00:00 11.9 4 Noroeste 18 Oeste 0 -- -- 71
2020-03-26 20:00:00 12.7 3 Oeste 25 Oeste 0 -- -- 69
2020-03-26 19:00:00 13.8 11 Oeste 31 Oeste 0 -- -- 63
2020-03-26 18:00:00 15.9 13 Noroeste 32 Oeste 0 -- -- 52
2020-03-26 17:00:00 16.9 14 Oeste 36 Oeste 0 -- -- 48
2020-03-26 16:00:00 16.6 17 Noroeste 40 Oeste 0 -- -- 46
2020-03-26 15:00:00 16.6 18 Oeste 37 Noroeste 0 -- -- 51
2020-03-26 14:00:00 17 12 Oeste 35 Noroeste 0 -- -- 50
2020-03-26 13:00:00 15.5 13 Noroeste 28 Sudoeste 0 -- -- 57
2020-03-26 12:00:00 15.3 14 Oeste 28 Oeste 0 -- -- 62
2020-03-26 11:00:00 14.2 5 Oeste 11 Oeste 0 -- -- 71
2020-03-26 10:00:00 12.2 5 Sudoeste 8 Sudoeste 0 -- -- 82
2020-03-26 09:00:00 9.6 3 Sur 5 Sur 0 -- -- 95
2020-03-26 08:00:00 7.2 0 Calma 8 Nordeste 0 -- -- 93
2020-03-26 07:00:00 7.3 0 Calma 8 Nordeste 0 -- -- 93
2020-03-26 06:00:00 7.4 3 Nordeste 7 Sudeste 0 -- -- 92
2020-03-26 05:00:00 7.7 0 Calma 10 Norte 0 -- -- 92
2020-03-26 04:00:00 7.4 2 Oeste 6 Noroeste 0 -- -- 92
2020-03-26 03:00:00 6.9 4 Nordeste 8 Nordeste 0 -- -- 94
2020-03-26 02:00:00 6.8 0 Calma 4 Nordeste 0 -- -- 92
2020-03-26 01:00:00 7.2 0 Calma 4 Este 0 -- -- 89
2020-03-26 00:00:00 8.4 3 Este 6 Este 0 -- -- 89
2020-03-25 23:00:00 8.6 0 Calma 3 Noroeste 0 -- -- 86
2020-03-25 22:00:00 9 0 Calma 8 Sudoeste 0 -- -- 89
2020-03-25 21:00:00 9.4 3 Oeste 6 Oeste 0 -- -- 89
2020-03-25 20:00:00 9.6 0 Calma 5 Oeste 0 -- -- 87
2020-03-25 19:00:00 10.2 2 Sudoeste 5 Sudoeste 0 -- -- 85
2020-03-25 18:00:00 10.4 3 Sudoeste 5 Sudoeste 0.2 -- -- 83
2020-03-25 17:00:00 9.9 0 Calma 7 Oeste 0 -- -- 86
2020-03-25 16:00:00 9.9 3 Oeste 8 Oeste 0 -- -- 86
2020-03-25 15:00:00 10 4 Sur 9 Sur 0 -- -- 86
2020-03-25 14:00:00 9.6 3 Sur 13 Sur 0.2 -- -- 88
2020-03-25 13:00:00 9.5 2 Sudeste 10 Sudeste 0 -- -- 84
2020-03-25 12:00:00 8.7 4 Nordeste 13 Nordeste 0.2 -- -- 87
2020-03-25 11:00:00 8.8 4 Este 14 Este 0 -- -- 87
2020-03-25 10:00:00 8.3 4 Este 15 Este 0.2 -- -- 87
2020-03-25 09:00:00 7.8 8 Este 21 Este 0.8 -- -- 87
2020-03-25 08:00:00 8.2 5 Este 22 Sudeste 5.4 -- -- 92
2020-03-25 07:00:00 9.4 9 Oeste 14 Oeste 3 -- -- 95
2020-03-25 06:00:00 9.8 0 Calma 3 Sudoeste 3.6 -- -- 94
2020-03-25 05:00:00 9.8 0 Calma 2 Sur 0 -- -- 94
2020-03-25 04:00:00 9.8 0 Calma 4 Sudoeste 0 -- -- 94
2020-03-25 03:00:00 9.8 2 Noroeste 5 Noroeste 0.6 -- -- 94
2020-03-25 02:00:00 10.1 3 Oeste 5 Noroeste 0.8 -- -- 94
2020-03-25 01:00:00 10.3 0 Calma 4 Oeste 0.2 -- -- 93
2020-03-25 00:00:00 10.4 0 Calma 5 Oeste 0 -- -- 93
2020-03-24 23:00:00 10.6 0 Calma 5 Oeste 0 -- -- 92
2020-03-24 22:00:00 10.8 0 Calma 4 Noroeste 0 -- -- 90
2020-03-24 21:00:00 10.8 3 Noroeste 8 Noroeste 0 -- -- 91
2020-03-24 20:00:00 11.7 5 Sur 10 Sur 0.4 -- -- 86
2020-03-24 19:00:00 13.5 0 Calma 8 Sudoeste 0 -- -- 80
2020-03-24 18:00:00 13.4 2 Sudoeste 7 Oeste 0 -- -- 82
2020-03-24 17:00:00 13.2 3 Sudoeste 6 Oeste 0.2 -- -- 87
2020-03-24 16:00:00 12.3 0 Calma 12 Oeste 0 -- -- 85
2020-03-24 15:00:00 12.9 4 Noroeste 13 Sudeste 0 -- -- 81
2020-03-24 14:00:00 13.5 9 Sudeste 27 Este 0.2 -- -- 73
2020-03-24 13:00:00 13.6 7 Este 19 Sudeste 0.2 -- -- 75
2020-03-24 12:00:00 11.4 4 Noroeste 12 Sur 0 -- -- 85
2020-03-24 11:00:00 10.6 0 Calma 12 Oeste 0 -- -- 90
2020-03-24 10:00:00 10 2 Noroeste 12 Este 0 -- -- 91
2020-03-24 09:00:00 9.3 8 Este 12 Este 1.6 -- -- 92
2020-03-24 08:00:00 9.4 0 Calma 19 Este 2.4 -- -- 89
2020-03-24 07:00:00 9.8 3 Este 10 Sudeste 0.6 -- -- 82
2020-03-24 06:00:00 9.3 0 Calma 9 Nordeste 0 -- -- 82
2020-03-24 05:00:00 8.9 3 Sudeste 10 Sudeste 0 -- -- 83
2020-03-24 04:00:00 9.1 0 Calma 12 Este 0 -- -- 82
2020-03-24 03:00:00 9.3 2 Sudoeste 9 Sudeste 0 -- -- 81
2020-03-24 02:00:00 9.7 2 Este 5 Nordeste 0 -- -- 82
2020-03-24 01:00:00 10.1 2 Este 9 Sur 0 -- -- 77
2020-03-24 00:00:00 10.7 4 Sudeste 23 Nordeste 0.2 -- -- 71
2020-03-23 23:00:00 10.5 10 Este 28 Este 0 -- -- 71
2020-03-23 22:00:00 10.1 4 Este 23 Nordeste 0 -- -- 74
2020-03-23 21:00:00 9.9 8 Este 15 Este 0 -- -- 76
2020-03-23 20:00:00 9.8 5 Este 16 Norte 0.4 -- -- 80
2020-03-23 19:00:00 10.5 2 Sudoeste 15 Este 0.2 -- -- 82
2020-03-23 18:00:00 11.6 7 Este 18 Sudeste 0.6 -- -- 76
2020-03-23 17:00:00 12.5 9 Sudeste 28 Sudeste 0 -- -- 69
2020-03-23 16:00:00 12.9 13 Sudeste 23 Sur 0 -- -- 67
2020-03-23 15:00:00 13.9 8 Este 24 Sudeste 0 -- -- 66
2020-03-23 14:00:00 13.1 12 Sudeste 36 Este 0 -- -- 68
2020-03-23 13:00:00 12.6 10 Sudeste 18 Sudeste 0 -- -- 69
2020-03-23 12:00:00 13.6 9 Sur 17 Sur 0 -- -- 65
2020-03-23 11:00:00 12 8 Sur 16 Sudeste 0 -- -- 73
2020-03-23 10:00:00 10.3 6 Sudeste 12 Este 0 -- -- 84
2020-03-23 09:00:00 7.5 0 Calma 11 Nordeste 0 -- -- 92
2020-03-23 08:00:00 5.5 2 Norte 9 Nordeste 0 -- -- 92
2020-03-23 07:00:00 5.3 3 Nordeste 8 Nordeste 0.2 -- -- 92
2020-03-23 06:00:00 5.3 0 Calma 6 Nordeste 0 -- -- 92
2020-03-23 05:00:00 6 2 Nordeste 9 Este 0 -- -- 92
2020-03-23 04:00:00 5.8 0 Calma 8 Norte 0 -- -- 92
2020-03-23 03:00:00 6.3 3 Nordeste 8 Nordeste 0 -- -- 91
2020-03-23 02:00:00 6.1 0 Calma 6 Nordeste 0 -- -- 91
2020-03-23 01:00:00 6.5 0 Calma 5 Nordeste 0 -- -- 90
2020-03-23 00:00:00 7.8 0 Calma 3 Sur 0 -- -- 92
2020-03-22 23:00:00 8.5 0 Calma 5 Noroeste 0 -- -- 93
2020-03-22 22:00:00 9.1 0 Calma 3 Oeste 0 -- -- 93
2020-03-22 21:00:00 9.3 0 Calma 5 Noroeste 0 -- -- 91
2020-03-22 20:00:00 9.2 5 Norte 13 Nordeste 0.4 -- -- 81
2020-03-22 19:00:00 10.3 2 Oeste 7 Sudoeste 0 -- -- 85
2020-03-22 18:00:00 11.9 5 Sudoeste 15 Sudoeste 0.2 -- -- 79
2020-03-22 17:00:00 11.8 5 Sudoeste 27 Oeste 0 -- -- 80
2020-03-22 16:00:00 11.9 3 Sudoeste 10 Sudoeste 0 -- -- 75
2020-03-22 15:00:00 11.9 4 Sudoeste 15 Oeste 0.2 -- -- 72
2020-03-22 14:00:00 11.8 5 Oeste 19 Sudoeste 0 -- -- 68
2020-03-22 13:00:00 11.7 8 Oeste 16 Oeste 0 -- -- 72
2020-03-22 12:00:00 10.9 5 Sudoeste 13 Sur 0 -- -- 77
2020-03-22 11:00:00 10.8 4 Sur 13 Sudoeste 0 -- -- 77
2020-03-22 10:00:00 8.8 4 Sudeste 6 Sudeste 0 -- -- 87
2020-03-22 09:00:00 6.5 2 Sur 4 Nordeste 0 -- -- 95
2020-03-22 08:00:00 5.2 2 Norte 7 Sur 0 -- -- 94
2020-03-22 07:00:00 5.6 0 Calma 8 Nordeste 0 -- -- 93
2020-03-22 06:00:00 5.8 0 Calma 4 Noroeste 0 -- -- 93
2020-03-22 05:00:00 6.1 0 Calma 3 Sudoeste 0 -- -- 93
2020-03-22 04:00:00 6.3 0 Calma 5 Nordeste 0.8 -- -- 92
2020-03-22 03:00:00 6.4 0 Calma 4 Noroeste 1 -- -- 91
2020-03-22 02:00:00 6.5 0 Calma 6 Noroeste 0.2 -- -- 90
2020-03-22 01:00:00 7 3 Noroeste 6 Noroeste 1.2 -- -- 93
2020-03-22 00:00:00 7.1 0 Calma 14 Sudoeste 0.2 -- -- 90
2020-03-21 23:00:00 7.5 2 Este 6 Sudeste 0.2 -- -- 91
2020-03-21 22:00:00 7.6 0 Calma 6 Este 0 -- -- 93
2020-03-21 21:00:00 7.6 2 Este 15 Sudoeste 0 -- -- 92
2020-03-21 20:00:00 7.7 2 Sudeste 21 Oeste 1.6 -- -- 93
2020-03-21 19:00:00 8.1 4 Oeste 21 Sur 0.2 -- -- 94
2020-03-21 18:00:00 8.4 5 Sur 21 Sudoeste 0.6 -- -- 94
2020-03-21 17:00:00 8.1 4 Sur 19 Noroeste 5.4 -- -- 93
2020-03-21 16:00:00 8 0 Calma 20 Oeste 4.8 -- -- 92
2020-03-21 15:00:00 8.2 6 Sudoeste 25 Sudoeste 2.8 -- -- 87
2020-03-21 14:00:00 9.4 3 Sudeste 46 Oeste 0.6 -- -- 86
2020-03-21 13:00:00 11.2 13 Sudoeste 30 Oeste 0.2 -- -- 77
2020-03-21 12:00:00 10.3 8 Oeste 18 Sudoeste 0 -- -- 81
2020-03-21 11:00:00 10.6 7 Sudoeste 18 Sur 0 -- -- 83
2020-03-21 10:00:00 8.7 3 Sur 8 Sudoeste 0.2 -- -- 88
2020-03-21 09:00:00 7.5 0 Calma 5 Sudeste 0 -- -- 90
2020-03-21 08:00:00 6.5 0 Calma 4 Este 0 -- -- 91
2020-03-21 07:00:00 6.6 0 Calma 10 Sudoeste 0 -- -- 89
2020-03-21 06:00:00 7.3 7 Noroeste 13 Noroeste 0 -- -- 85
2020-03-21 05:00:00 7.7 3 Noroeste 10 Noroeste 0 -- -- 86
2020-03-21 04:00:00 8.2 6 Noroeste 14 Noroeste 0 -- -- 88
2020-03-21 03:00:00 8.8 0 Calma 17 Oeste 3 -- -- 94
2020-03-21 02:00:00 9.7 8 Sudoeste 41 Sur 21.2 -- -- 95
2020-03-21 01:00:00 11 10 Sur 42 Sudeste 7 -- -- 91
2020-03-21 00:00:00 10.8 11 Sudeste 43 Este 3.4 -- -- 92
2020-03-20 23:00:00 10.8 10 Sudeste 31 Sur 1.6 -- -- 92
2020-03-20 22:00:00 11 9 Sudeste 25 Sudeste 0.8 -- -- 91
2020-03-20 21:00:00 10.7 7 Este 26 Este 0.4 -- -- 89
2020-03-20 20:00:00 10.7 9 Sur 23 Sur 0 -- -- 87
2020-03-20 19:00:00 11.6 9 Sur 26 Sudeste 0 -- -- 78
2020-03-20 18:00:00 12.7 6 Sudeste 21 Sur 0 -- -- 76
2020-03-20 17:00:00 13.3 8 Sur 21 Sur 0 -- -- 74
2020-03-20 16:00:00 13.4 7 Sur 27 Sudeste 0 -- -- 73
2020-03-20 15:00:00 13.2 9 Sur 29 Sur 0 -- -- 75
2020-03-20 14:00:00 12.2 13 Sudeste 36 Este 0 -- -- 74
2020-03-20 13:00:00 11.4 7 Sudeste 28 Sudeste 0 -- -- 79
2020-03-20 12:00:00 11.8 10 Sur 22 Sudoeste 0 -- -- 78
2020-03-20 11:00:00 11.1 9 Este 21 Sudeste 0 -- -- 80
2020-03-20 10:00:00 10.6 7 Este 25 Sudeste 0 -- -- 81
2020-03-20 09:00:00 10.5 8 Sudeste 29 Este 0 -- -- 76
2020-03-20 08:00:00 9.8 13 Este 29 Este 0 -- -- 79
2020-03-20 07:00:00 9.9 8 Sudeste 22 Este 0 -- -- 84
2020-03-20 06:00:00 10 9 Este 28 Este 0 -- -- 82
2020-03-20 05:00:00 10.1 8 Este 25 Sur 0 -- -- 76
2020-03-20 04:00:00 10.3 4 Sur 29 Sur 0 -- -- 72
2020-03-20 03:00:00 10.1 8 Este 29 Este 0 -- -- 72
2020-03-20 02:00:00 9.9 10 Este 36 Este 0 -- -- 80
2020-03-20 01:00:00 10.1 13 Sudeste 41 Sudeste 0 -- -- 89
2020-03-20 00:00:00 10.6 13 Sudeste 32 Este 0 -- -- 89
2020-03-19 23:00:00 10.7 10 Este 31 Este 0 -- -- 89
2020-03-19 22:00:00 11 10 Este 31 Este 0 -- -- 85
2020-03-19 21:00:00 11.2 7 Este 28 Este 0 -- -- 81
2020-03-19 20:00:00 11.2 7 Este 27 Sudeste 0 -- -- 80
2020-03-19 19:00:00 11.8 7 Este 21 Nordeste 0 -- -- 79
2020-03-19 18:00:00 12.5 6 Este 29 Este 0 -- -- 75
2020-03-19 17:00:00 12.8 5 Este 29 Este 0 -- -- 74
2020-03-19 16:00:00 12.4 14 Este 42 Nordeste 0 -- -- 76
2020-03-19 15:00:00 12.4 11 Este 36 Sudeste 0 -- -- 74
2020-03-19 14:00:00 12.3 10 Este 38 Sudeste 0 -- -- 75
2020-03-19 13:00:00 12.9 13 Sudeste 42 Este 0 -- -- 71
2020-03-19 12:00:00 12.4 11 Este 33 Este 0 -- -- 75
2020-03-19 11:00:00 11.8 12 Nordeste 39 Sudeste 0 -- -- 77
2020-03-19 10:00:00 11.2 12 Sudeste 42 Este 0 -- -- 79
2020-03-19 09:00:00 11 9 Este 44 Este 0 -- -- 79
2020-03-19 08:00:00 10.9 18 Este 44 Este 0 -- -- 79
2020-03-19 07:00:00 10.8 10 Este 30 Este 0 -- -- 80
2020-03-19 06:00:00 11 12 Sudeste 37 Sudeste 0 -- -- 82
2020-03-19 05:00:00 11.2 10 Sudeste 36 Este 0 -- -- 82
2020-03-19 04:00:00 11.2 15 Sur 40 Sudoeste 0 -- -- 81
2020-03-19 03:00:00 11.1 17 Sudeste 41 Sudeste 0 -- -- 82
2020-03-19 02:00:00 11.1 11 Sudeste 38 Sur 0 -- -- 82
2020-03-19 01:00:00 11.3 12 Sudeste 41 Este 0 -- -- 81
2020-03-19 00:00:00 11.5 13 Sudeste 36 Sudeste 0 -- -- 81
2020-03-18 23:00:00 11.5 18 Este 52 Este 0 -- -- 79
2020-03-18 22:00:00 11.5 16 Sudeste 44 Este 0 -- -- 79
2020-03-18 21:00:00 11.9 13 Sudeste 33 Este 0 -- -- 76
2020-03-18 20:00:00 12.5 15 Sur 33 Sudeste 0 -- -- 72
2020-03-18 19:00:00 13.2 6 Sudeste 26 Sudeste 0 -- -- 72
2020-03-18 18:00:00 14.4 9 Sudeste 28 Sur 0 -- -- 71
2020-03-18 17:00:00 14.6 10 Sur 30 Sur 0 -- -- 71
2020-03-18 16:00:00 14.6 9 Sur 37 Este 0 -- -- 72
2020-03-18 15:00:00 13.7 15 Sudeste 44 Sudeste 0 -- -- 76
2020-03-18 14:00:00 14.2 24 Este 57 Este 0 -- -- 75
2020-03-18 13:00:00 14.2 27 Este 63 Este 0 -- -- 73
2020-03-18 12:00:00 13.3 20 Este 56 Este 0 -- -- 76
2020-03-18 11:00:00 13.1 14 Sudeste 37 Sudeste 0 -- -- 77
2020-03-18 10:00:00 12.9 16 Sudeste 44 Sudeste 0 -- -- 78
2020-03-18 09:00:00 12.5 17 Sudeste 36 Sudeste 0 -- -- 81
2020-03-18 08:00:00 12.1 8 Sudeste 35 Este 0 -- -- 82
2020-03-18 07:00:00 12 9 Sudeste 29 Sudeste 0 -- -- 80
2020-03-18 06:00:00 12.4 9 Sudeste 34 Sur 0 -- -- 77
2020-03-18 05:00:00 12.9 12 Sudeste 40 Este 0 -- -- 76
2020-03-18 04:00:00 12.8 11 Este 37 Sudeste 0 -- -- 78
2020-03-18 03:00:00 12.6 18 Este 48 Sudeste 0 -- -- 80
2020-03-18 02:00:00 12.9 11 Sudeste 46 Este 0 -- -- 78
2020-03-18 01:00:00 13.1 19 Sudeste 58 Este 0 -- -- 76
2020-03-18 00:00:00 12.8 14 Este 39 Sudeste 0 -- -- 77
2020-03-17 23:00:00 12.5 13 Este 36 Sudeste 0 -- -- 76
2020-03-17 22:00:00 12 13 Este 33 Este 0 -- -- 77
2020-03-17 21:00:00 11.8 13 Este 35 Sudeste 0 -- -- 79
2020-03-17 20:00:00 10.5 6 Este 27 Este 0.2 -- -- 79
2020-03-17 19:00:00 10.7 10 Este 27 Este 0.2 -- -- 71
2020-03-17 18:00:00 10.7 8 Este 28 Sudeste 0.2 -- -- 71
2020-03-17 17:00:00 12.4 12 Este 32 Sudeste 0 -- -- 60
2020-03-17 16:00:00 12.2 12 Este 42 Sudeste 0 -- -- 56
2020-03-17 15:00:00 11.8 19 Sudeste 33 Sudeste 0 -- -- 58
2020-03-17 14:00:00 10.6 12 Sudeste 32 Sudeste 0 -- -- 67
2020-03-17 13:00:00 10.6 10 Sudeste 33 Este 0 -- -- 64
2020-03-17 12:00:00 10.4 12 Sudeste 33 Sudeste 0 -- -- 73
2020-03-17 11:00:00 7.5 5 Noroeste 10 Oeste 0 -- -- 86
2020-03-17 10:00:00 6 5 Nordeste 21 Este 0.8 -- -- 86
2020-03-17 09:00:00 4.5 13 Este 28 Nordeste 1.8 -- -- 86
2020-03-17 08:00:00 5 12 Este 23 Este 1 -- -- 83
2020-03-17 07:00:00 5.3 4 Sur 19 Este 4 -- -- 85
2020-03-17 06:00:00 6.6 4 Este 12 Noroeste 0.6 -- -- 79
2020-03-17 05:00:00 6.9 4 Sudeste 11 Sudeste 0 -- -- 72
2020-03-17 04:00:00 6.7 0 Calma 6 Sudoeste 0 -- -- 72
2020-03-17 03:00:00 7 0 Calma 9 Noroeste 0 -- -- 67
2020-03-17 02:00:00 6.9 3 Noroeste 8 Noroeste 0 -- -- 66
2020-03-17 01:00:00 6.4 0 Calma 6 Sudeste 0 -- -- 67
2020-03-17 00:00:00 7.5 3 Sudoeste 11 Norte 0 -- -- 63
2020-03-16 23:00:00 7.8 5 Noroeste 21 Nordeste 0 -- -- 60
2020-03-16 22:00:00 7.9 13 Nordeste 26 Norte 0 -- -- 60
2020-03-16 21:00:00 9.4 7 Nordeste 19 Nordeste 0 -- -- 53
2020-03-16 20:00:00 9.6 7 Noroeste 19 Noroeste 0 -- -- 50
2020-03-16 19:00:00 10.2 13 Noroeste 31 Oeste 0 -- -- 48
2020-03-16 18:00:00 10.6 15 Noroeste 42 Noroeste 0 -- -- 47
2020-03-16 17:00:00 12.5 15 Noroeste 41 Noroeste 0 -- -- 41
2020-03-16 16:00:00 12.8 19 Noroeste 37 Noroeste 0 -- -- 41
2020-03-16 15:00:00 12.7 17 Noroeste 43 Oeste 0 -- -- 42
2020-03-16 14:00:00 12.4 15 Oeste 43 Oeste 0 -- -- 40
2020-03-16 13:00:00 12.1 14 Nordeste 37 Nordeste 0 -- -- 34
2020-03-16 12:00:00 10.7 10 Nordeste 32 Nordeste 0 -- -- 40
2020-03-16 11:00:00 10.1 12 Nordeste 50 Norte 0 -- -- 40
2020-03-16 10:00:00 9.4 13 Este 49 Nordeste 0 -- -- 36
2020-03-16 09:00:00 8 21 Nordeste 46 Nordeste 0 -- -- 39
2020-03-16 08:00:00 8.3 9 Este 37 Nordeste 0 -- -- 53
2020-03-16 07:00:00 10.2 3 Sudeste 21 Nordeste 0 -- -- 81
2020-03-16 06:00:00 10.8 3 Oeste 8 Noroeste 0 -- -- 89
2020-03-16 05:00:00 10.9 5 Noroeste 10 Noroeste 0 -- -- 89
2020-03-16 04:00:00 10.5 0 Calma 8 Noroeste 0 -- -- 90
2020-03-16 03:00:00 10.9 3 Noroeste 7 Sudoeste 0 -- -- 89
2020-03-16 02:00:00 10.7 0 Calma 9 Sudoeste 0 -- -- 91
2020-03-16 01:00:00 10.7 4 Oeste 8 Oeste 0 -- -- 92
2020-03-16 00:00:00 10.9 0 Calma 5 Oeste 0 -- -- 90
2020-03-15 23:00:00 11.2 0 Calma 6 Oeste 0 -- -- 88
2020-03-15 22:00:00 11.6 5 Noroeste 9 Sudoeste 0 -- -- 88
2020-03-15 21:00:00 12 3 Oeste 7 Noroeste 0 -- -- 86
2020-03-15 20:00:00 13.4 2 Sur 9 Oeste 0 -- -- 77
2020-03-15 19:00:00 16.2 5 Oeste 12 Oeste 0 -- -- 70
2020-03-15 18:00:00 18.7 6 Sudoeste 14 Sudoeste 0 -- -- 62
2020-03-15 17:00:00 20 7 Oeste 16 Sudoeste 0 -- -- 59
2020-03-15 16:00:00 19.2 6 Sudeste 15 Sudeste 0 -- -- 59
2020-03-15 15:00:00 19.6 10 Sur 22 Sur 0 -- -- 56
2020-03-15 14:00:00 19.4 8 Sudoeste 23 Sudoeste 0 -- -- 58
2020-03-15 13:00:00 16.7 8 Sudeste 22 Sudeste 0 -- -- 67
2020-03-15 12:00:00 15.1 6 Sur 21 Este 0 -- -- 75
2020-03-15 11:00:00 13.6 3 Sudeste 27 Sudeste 0 -- -- 80
2020-03-15 10:00:00 12.5 10 Este 27 Este 0 -- -- 79
2020-03-15 09:00:00 11 5 Sur 21 Este 0 -- -- 84
2020-03-15 08:00:00 9.6 0 Calma 6 Sur 0 -- -- 88
2020-03-15 07:00:00 9.7 2 Sudeste 13 Oeste 0 -- -- 87
2020-03-15 06:00:00 10.3 5 Nordeste 28 Este 0 -- -- 86
2020-03-15 05:00:00 10 0 Calma 18 Este 0 -- -- 86
2020-03-15 04:00:00 10.7 13 Este 23 Nordeste 0 -- -- 85
2020-03-15 03:00:00 10.4 8 Sudeste 20 Sudeste 0 -- -- 85
2020-03-15 02:00:00 11.4 7 Sudeste 18 Este 0 -- -- 81
2020-03-15 01:00:00 12 10 Este 28 Este 0 -- -- 79
2020-03-15 00:00:00 12.4 3 Sur 20 Nordeste 0 -- -- 82
2020-03-14 23:00:00 12.1 4 Sur 14 Sudeste 0 -- -- 87
2020-03-14 22:00:00 12.3 0 Calma 4 Sudoeste 0 -- -- 85
2020-03-14 21:00:00 13.2 0 Calma 4 Sur 0 -- -- 80
2020-03-14 20:00:00 14.7 2 Sudoeste 6 Noroeste 0 -- -- 76
2020-03-14 19:00:00 17.4 5 Oeste 12 Sudoeste 0 -- -- 69
2020-03-14 18:00:00 20.4 6 Sudoeste 13 Oeste 0 -- -- 59
2020-03-14 17:00:00 20.7 7 Sudoeste 17 Sudoeste 0 -- -- 59
2020-03-14 16:00:00 20.6 11 Sudoeste 22 Sur 0 -- -- 59
2020-03-14 15:00:00 20.6 13 Sudoeste 20 Sudoeste 0 -- -- 58
2020-03-14 14:00:00 20.5 10 Sudoeste 17 Sudoeste 0 -- -- 58
2020-03-14 13:00:00 19.8 8 Sudoeste 14 Sur 0 -- -- 59
2020-03-14 12:00:00 19 5 Sur 12 Sudoeste 0 -- -- 59
2020-03-14 11:00:00 16.5 4 Sudoeste 9 Sur 0 -- -- 68
2020-03-14 10:00:00 14.7 2 Sudoeste 5 Sudoeste 0 -- -- 71
2020-03-14 09:00:00 11.1 0 Calma 3 Sudeste 0 -- -- 87
2020-03-14 08:00:00 8.9 0 Calma 5 Noroeste 0 -- -- 87
2020-03-14 07:00:00 8.8 0 Calma 3 Sudeste 0 -- -- 87
2020-03-14 06:00:00 9.2 0 Calma 3 Sudeste 0 -- -- 84
2020-03-14 05:00:00 9.9 0 Calma 3 Oeste 0 -- -- 83
2020-03-14 04:00:00 10.2 0 Calma 3 Sudeste 0 -- -- 82
2020-03-14 03:00:00 10.9 0 Calma 4 Este 0 -- -- 82
2020-03-14 02:00:00 11.3 0 Calma 3 Este 0 -- -- 80
2020-03-14 01:00:00 11.8 0 Calma 2 Nordeste 0 -- -- 79
2020-03-14 00:00:00 12.6 0 Calma 3 Este 0 -- -- 76
2020-03-13 23:00:00 13.7 0 Calma 3 Oeste 0 -- -- 74
2020-03-13 22:00:00 14.6 0 Calma 4 Noroeste 0 -- -- 68
2020-03-13 21:00:00 15.9 0 Calma 6 Sudeste 0 -- -- 62
2020-03-13 20:00:00 17.4 3 Este 8 Oeste 0 -- -- 53
2020-03-13 19:00:00 20.4 6 Oeste 14 Oeste 0 -- -- 45
2020-03-13 18:00:00 22.5 6 Oeste 15 Sudoeste 0 -- -- 45
2020-03-13 17:00:00 23.7 8 Sudoeste 17 Sur 0 -- -- 42
2020-03-13 16:00:00 23.6 8 Sudoeste 15 Sudoeste 0 -- -- 39
2020-03-13 15:00:00 22.6 8 Oeste 16 Oeste 0 -- -- 35
2020-03-13 14:00:00 21.3 6 Sudoeste 15 Sur 0 -- -- 39
2020-03-13 13:00:00 22.5 6 Sudoeste 12 Sudoeste 0 -- -- 33
2020-03-13 12:00:00 21.8 6 Sur 10 Sur 0 -- -- 37
2020-03-13 11:00:00 19.7 4 Oeste 6 Oeste 0 -- -- 38
2020-03-13 10:00:00 18.7 2 Sur 4 Oeste 0 -- -- 39
2020-03-13 09:00:00 14.2 0 Calma 6 Este 0 -- -- 55
2020-03-13 08:00:00 13.3 3 Nordeste 6 Nordeste 0 -- -- 41
2020-03-13 07:00:00 13.1 3 Nordeste 6 Nordeste 0 -- -- 39
2020-03-13 06:00:00 12.8 4 Nordeste 8 Nordeste 0 -- -- 44
2020-03-13 05:00:00 12.8 2 Nordeste 6 Nordeste 0 -- -- 52
2020-03-13 04:00:00 13.3 0 Calma 6 Nordeste 0 -- -- 55
2020-03-13 03:00:00 14.2 3 Nordeste 5 Nordeste 0 -- -- 55
2020-03-13 02:00:00 14 0 Calma 4 Nordeste 0 -- -- 58
2020-03-13 01:00:00 15.1 0 Calma 6 Nordeste 0 -- -- 53
2020-03-13 00:00:00 15.3 3 Sudeste 8 Noroeste 0 -- -- 54
2020-03-12 23:00:00 15.8 3 Nordeste 4 Nordeste 0 -- -- 56
2020-03-12 22:00:00 16.5 3 Este 4 Este 0 -- -- 53
2020-03-12 21:00:00 17.8 0 Calma 3 Este 0 -- -- 50
2020-03-12 20:00:00 19.3 3 Noroeste 6 Noroeste 0 -- -- 43
2020-03-12 19:00:00 22.1 4 Oeste 10 Oeste 0 -- -- 39
2020-03-12 18:00:00 23.9 7 Sudoeste 20 Sur 0 -- -- 37
2020-03-12 17:00:00 25.3 11 Sudoeste 20 Sudoeste 0 -- -- 36
2020-03-12 16:00:00 25.5 12 Sudoeste 20 Sur 0 -- -- 35
2020-03-12 15:00:00 25 6 Oeste 20 Sudoeste 0 -- -- 38
2020-03-12 14:00:00 25.5 8 Sudoeste 22 Sur 0 -- -- 40
2020-03-12 13:00:00 25.2 12 Sur 26 Sur 0 -- -- 34
2020-03-12 12:00:00 24.3 5 Sudeste 21 Sur 0 -- -- 35
2020-03-12 11:00:00 22.5 9 Sudeste 19 Sudeste 0 -- -- 40
2020-03-12 10:00:00 20.2 3 Sudoeste 10 Sur 0 -- -- 45
2020-03-12 09:00:00 17.9 0 Calma 10 Nordeste 0 -- -- 46
2020-03-12 08:00:00 18.1 4 Noroeste 21 Sudeste 0 -- -- 44
2020-03-12 07:00:00 18.3 5 Sudeste 31 Nordeste 0 -- -- 41
2020-03-12 06:00:00 18.2 10 Este 23 Sudeste 0 -- -- 40
2020-03-12 05:00:00 18.7 4 Sudeste 31 Este 0 -- -- 39
2020-03-12 04:00:00 18.5 12 Este 31 Este 0 -- -- 39
2020-03-12 03:00:00 18.2 13 Este 31 Este 0 -- -- 40
2020-03-12 02:00:00 19.3 12 Este 29 Este 0 -- -- 37
2020-03-12 01:00:00 19.6 12 Este 27 Este 0 -- -- 35
2020-03-12 00:00:00 19.2 6 Este 21 Este 0 -- -- 37
2020-03-11 23:00:00 20.1 14 Este 23 Nordeste 0 -- -- 36
2020-03-11 22:00:00 19.4 6 Este 18 Este 0 -- -- 38
2020-03-11 21:00:00 19.8 6 Este 15 Sudeste 0 -- -- 38
2020-03-11 20:00:00 20.9 6 Este 25 Este 0 -- -- 34
2020-03-11 19:00:00 24.3 5 Sudeste 22 Sur 0 -- -- 32
2020-03-11 18:00:00 25.5 9 Sur 23 Sudeste 0 -- -- 31
2020-03-11 17:00:00 26.1 9 Sudoeste 20 Sur 0 -- -- 32
2020-03-11 16:00:00 25 10 Sur 24 Sur 0 -- -- 32
2020-03-11 15:00:00 24.9 15 Sur 37 Sur 0 -- -- 32
2020-03-11 14:00:00 26 12 Sudeste 39 Sur 0 -- -- 32
2020-03-11 13:00:00 24.4 18 Sur 37 Sur 0 -- -- 32
2020-03-11 12:00:00 24.1 17 Sur 30 Sur 0 -- -- 34
2020-03-11 11:00:00 22.2 12 Sudeste 26 Sur 0 -- -- 35
2020-03-11 10:00:00 20.6 12 Sur 27 Sur 0 -- -- 38
2020-03-11 09:00:00 18.1 6 Sur 13 Sudoeste 0 -- -- 42
2020-03-11 08:00:00 17 0 Calma 14 Este 0 -- -- 44
2020-03-11 07:00:00 17 5 Sudeste 19 Este 0 -- -- 45
2020-03-11 06:00:00 15.2 5 Este 16 Este 0 -- -- 50
2020-03-11 05:00:00 14.7 9 Nordeste 14 Este 0 -- -- 51
2020-03-11 04:00:00 12.7 0 Calma 8 Sur 0 -- -- 58
2020-03-11 03:00:00 12.5 4 Este 8 Este 0 -- -- 56
2020-03-11 02:00:00 12.9 0 Calma 8 Noroeste 0 -- -- 55
2020-03-11 01:00:00 14.6 5 Nordeste 16 Este 0 -- -- 47
2020-03-11 00:00:00 13.4 6 Nordeste 10 Nordeste 0 -- -- 57
2020-03-10 23:00:00 14.9 7 Nordeste 17 Nordeste 0 -- -- 49
2020-03-10 22:00:00 13.2 0 Calma 6 Nordeste 0 -- -- 60
2020-03-10 21:00:00 14.1 2 Nordeste 6 Nordeste 0 -- -- 58
2020-03-10 20:00:00 15.8 2 Noroeste 9 Oeste 0 -- -- 52
2020-03-10 19:00:00 19.5 4 Oeste 13 Sudoeste 0 -- -- 45
2020-03-10 18:00:00 21.4 7 Sur 21 Sur 0 -- -- 43
2020-03-10 17:00:00 21.7 9 Sur 22 Sur 0 -- -- 44
2020-03-10 16:00:00 21.6 8 Sudeste 21 Este 0 -- -- 42
2020-03-10 15:00:00 22.1 13 Sur 26 Sur 0 -- -- 37
2020-03-10 14:00:00 22.4 9 Sur 26 Sudoeste 0 -- -- 37
2020-03-10 13:00:00 21.6 11 Sur 27 Sur 0 -- -- 37
2020-03-10 12:00:00 21.3 12 Sur 26 Sudoeste 0 -- -- 35
2020-03-10 11:00:00 20 7 Sudoeste 15 Sur 0 -- -- 40
2020-03-10 10:00:00 17.6 2 Oeste 5 Oeste 0 -- -- 46
2020-03-10 09:00:00 14 2 Sudoeste 9 Nordeste 0 -- -- 53
2020-03-10 08:00:00 12.2 6 Nordeste 9 Este 0 -- -- 51
2020-03-10 07:00:00 13.9 0 Calma 22 Este 0 -- -- 44
2020-03-10 06:00:00 15.5 6 Nordeste 24 Nordeste 0 -- -- 40
2020-03-10 05:00:00 14.9 6 Norte 20 Este 0 -- -- 39
2020-03-10 04:00:00 14.6 5 Sudoeste 30 Este 0 -- -- 38
2020-03-10 03:00:00 12.6 2 Nordeste 9 Sur 0 -- -- 50
2020-03-10 02:00:00 13 3 Sudoeste 14 Oeste 0 -- -- 51
2020-03-10 01:00:00 13.8 2 Sudeste 14 Sudeste 0 -- -- 49
2020-03-10 00:00:00 14.9 8 Sudeste 23 Sur 0 -- -- 45
2020-03-09 23:00:00 15 6 Sudeste 33 Este 0 -- -- 45
2020-03-09 22:00:00 16.2 14 Este 39 Nordeste 0 -- -- 41
2020-03-09 21:00:00 16.4 20 Nordeste 46 Nordeste 0 -- -- 40
2020-03-09 20:00:00 16.4 14 Nordeste 40 Norte 0 -- -- 43
2020-03-09 19:00:00 18.2 10 Norte 30 Norte 0 -- -- 35
2020-03-09 18:00:00 20.7 6 Norte 39 Norte 0 -- -- 34
2020-03-09 17:00:00 21 19 Norte 36 Norte 0 -- -- 30
2020-03-09 16:00:00 21.6 16 Norte 38 Nordeste 0 -- -- 24
2020-03-09 15:00:00 21.3 15 Nordeste 39 Norte 0 -- -- 22
2020-03-09 14:00:00 21.8 11 Nordeste 41 Nordeste 0 -- -- 20
2020-03-09 13:00:00 20.1 14 Norte 35 Norte 0 -- -- 22
2020-03-09 12:00:00 18.8 12 Nordeste 31 Nordeste 0 -- -- 27
2020-03-09 11:00:00 18.1 14 Nordeste 32 Nordeste 0 -- -- 27
2020-03-09 10:00:00 16.3 17 Nordeste 31 Nordeste 0 -- -- 28
2020-03-09 09:00:00 14.7 17 Nordeste 30 Nordeste 0 -- -- 36
2020-03-09 08:00:00 14.1 10 Nordeste 31 Nordeste 0 -- -- 50
2020-03-09 07:00:00 13.9 10 Nordeste 22 Nordeste 0 -- -- 40
2020-03-09 06:00:00 12.4 4 Noroeste 32 Nordeste 0 -- -- 47
2020-03-09 05:00:00 13.9 12 Nordeste 34 Norte 0 -- -- 41
2020-03-09 04:00:00 14.7 11 Norte 27 Norte 0 -- -- 37
2020-03-09 03:00:00 12.4 5 Sudeste 14 Sur 0 -- -- 44
2020-03-09 02:00:00 12.1 2 Este 6 Sur 0 -- -- 44
2020-03-09 01:00:00 12.7 3 Este 6 Este 0 -- -- 45
2020-03-09 00:00:00 14.2 4 Este 12 Sudeste 0 -- -- 38
2020-03-08 23:00:00 14.6 5 Sudeste 12 Norte 0 -- -- 40
2020-03-08 22:00:00 14.6 2 Este 11 Sur 0 -- -- 42
2020-03-08 21:00:00 16 4 Nordeste 30 Norte 0 -- -- 33
2020-03-08 20:00:00 16.8 13 Norte 26 Nordeste 0 -- -- 35
2020-03-08 19:00:00 18.1 3 Noroeste 10 Sudoeste 0 -- -- 51
2020-03-08 18:00:00 21.4 6 Sudoeste 17 Sudoeste 0 -- -- 44
2020-03-08 17:00:00 21.4 12 Sudoeste 19 Sudoeste 0 -- -- 45
2020-03-08 16:00:00 21.8 11 Sudoeste 24 Sudoeste 0 -- -- 44
2020-03-08 15:00:00 22.1 12 Sudoeste 20 Sur 0 -- -- 41
2020-03-08 14:00:00 21.6 9 Sudoeste 18 Sudoeste 0 -- -- 35
2020-03-08 13:00:00 19.9 6 Oeste 13 Sur 0 -- -- 35
2020-03-08 12:00:00 17 7 Noroeste 13 Oeste 0 -- -- 39
2020-03-08 11:00:00 15.3 4 Sudoeste 8 Sudoeste 0 -- -- 44
2020-03-08 10:00:00 13.1 0 Calma 4 Este 0 -- -- 43
2020-03-08 09:00:00 8.5 0 Calma 5 Este 0 -- -- 61
2020-03-08 08:00:00 7.1 4 Nordeste 11 Nordeste 0 -- -- 54
2020-03-08 07:00:00 6.9 2 Este 4 Nordeste 0 -- -- 57
2020-03-08 06:00:00 8.2 4 Norte 9 Nordeste 0 -- -- 53
2020-03-08 05:00:00 8.5 6 Nordeste 10 Nordeste 0 -- -- 53
2020-03-08 04:00:00 8.3 2 Nordeste 7 Nordeste 0 -- -- 55
2020-03-08 03:00:00 9.1 3 Este 9 Nordeste 0 -- -- 54
2020-03-08 02:00:00 9.5 5 Este 9 Nordeste 0 -- -- 54
2020-03-08 01:00:00 10.9 3 Noroeste 12 Norte 0 -- -- 49
2020-03-08 00:00:00 12 5 Este 22 Este 0 -- -- 46
2020-03-07 23:00:00 11.8 6 Este 17 Nordeste 0 -- -- 47
2020-03-07 22:00:00 10.9 2 Norte 12 Oeste 0 -- -- 49
2020-03-07 21:00:00 12.8 9 Norte 30 Nordeste 0 -- -- 43
2020-03-07 20:00:00 13 5 Sudeste 17 Sudeste 0 -- -- 45
2020-03-07 19:00:00 15.7 7 Noroeste 26 Norte 0 -- -- 39
2020-03-07 18:00:00 15.9 7 Norte 15 Norte 0 -- -- 37
2020-03-07 17:00:00 17.1 6 Sudoeste 20 Este 0 -- -- 41
2020-03-07 16:00:00 19.8 9 Nordeste 23 Nordeste 0 -- -- 30
2020-03-07 15:00:00 19.4 11 Nordeste 26 Nordeste 0 -- -- 27
2020-03-07 14:00:00 18.1 10 Oeste 26 Noroeste 0 -- -- 32
2020-03-07 13:00:00 17.9 10 Sur 19 Sur 0 -- -- 34
2020-03-07 12:00:00 16.5 7 Este 19 Nordeste 0 -- -- 34
2020-03-07 11:00:00 14.9 8 Este 19 Este 0 -- -- 34
2020-03-07 10:00:00 11.4 4 Oeste 12 Noroeste 0 -- -- 47
2020-03-07 09:00:00 8.2 4 Sur 13 Nordeste 0 -- -- 56
2020-03-07 08:00:00 5.9 2 Nordeste 8 Este 0 -- -- 64
2020-03-07 07:00:00 6.2 6 Nordeste 10 Nordeste 0 -- -- 66
2020-03-07 06:00:00 6.3 2 Nordeste 8 Nordeste 0 -- -- 67
2020-03-07 05:00:00 6.9 4 Sudeste 12 Este 0 -- -- 65
2020-03-07 04:00:00 7.7 9 Este 23 Este 0 -- -- 62
2020-03-07 03:00:00 8 3 Nordeste 9 Norte 0 -- -- 65
2020-03-07 02:00:00 8.8 5 Norte 22 Sudeste 0 -- -- 63
2020-03-07 01:00:00 10 6 Sur 33 Nordeste 0 -- -- 58
2020-03-07 00:00:00 10 10 Nordeste 30 Norte 0 -- -- 60
2020-03-06 23:00:00 10.3 11 Nordeste 23 Nordeste 0 -- -- 60
2020-03-06 22:00:00 10.7 4 Noroeste 14 Noroeste 0 -- -- 58
2020-03-06 21:00:00 11.3 5 Oeste 18 Nordeste 0 -- -- 56
2020-03-06 20:00:00 12 4 Noroeste 19 Nordeste 0 -- -- 54
2020-03-06 19:00:00 13.9 7 Oeste 34 Oeste 0 -- -- 50
2020-03-06 18:00:00 15.1 13 Oeste 32 Oeste 0 -- -- 45
2020-03-06 17:00:00 15.7 8 Este 35 Noroeste 0 -- -- 48
2020-03-06 16:00:00 16.1 10 Nordeste 30 Oeste 0 -- -- 43
2020-03-06 15:00:00 14.5 14 Noroeste 40 Noroeste 0 -- -- 47
2020-03-06 14:00:00 14.8 10 Nordeste 35 Nordeste 0 -- -- 52
2020-03-06 13:00:00 13.6 6 Nordeste 30 Nordeste 0 -- -- 55
2020-03-06 12:00:00 12.4 8 Noroeste 27 Noroeste 0 -- -- 58
2020-03-06 11:00:00 11.7 8 Sudeste 33 Este 0 -- -- 65
2020-03-06 10:00:00 9.8 5 Noroeste 27 Nordeste 0 -- -- 71
2020-03-06 09:00:00 7.8 8 Nordeste 31 Nordeste 0 -- -- 75
2020-03-06 08:00:00 6.9 11 Nordeste 36 Nordeste 0 -- -- 77
2020-03-06 07:00:00 6.9 18 Nordeste 47 Nordeste 0 -- -- 75
2020-03-06 06:00:00 7.3 25 Nordeste 55 Nordeste 0 -- -- 70
2020-03-06 05:00:00 7.4 13 Nordeste 35 Nordeste 0 -- -- 73
2020-03-06 04:00:00 7.7 11 Nordeste 31 Nordeste 0 -- -- 74
2020-03-06 03:00:00 8.3 7 Nordeste 29 Noroeste 0 -- -- 73
2020-03-06 02:00:00 9.2 14 Noroeste 35 Noroeste 0 -- -- 72
2020-03-06 01:00:00 9.9 9 Norte 39 Norte 0 -- -- 69
2020-03-06 00:00:00 10.6 17 Norte 36 Noroeste 0 -- -- 66
2020-03-05 23:00:00 11.1 8 Norte 28 Norte 0 -- -- 65
2020-03-05 22:00:00 11.7 14 Noroeste 35 Noroeste 0 -- -- 61
2020-03-05 21:00:00 11.7 12 Noroeste 33 Noroeste 0 -- -- 62
2020-03-05 20:00:00 11.8 15 Norte 36 Norte 0 -- -- 64
2020-03-05 19:00:00 12.9 10 Noroeste 34 Noroeste 0 -- -- 62
2020-03-05 18:00:00 13.4 14 Noroeste 44 Noroeste 0 -- -- 67
2020-03-05 17:00:00 12.8 11 Norte 27 Norte 0 -- -- 78
2020-03-05 16:00:00 13.1 7 Noroeste 22 Noroeste 0 -- -- 81
2020-03-05 15:00:00 14 12 Noroeste 35 Oeste 0 -- -- 73
2020-03-05 14:00:00 16 17 Noroeste 40 Noroeste 0 -- -- 66
2020-03-05 13:00:00 15.2 25 Oeste 48 Oeste 0 -- -- 66
2020-03-05 12:00:00 14.8 22 Oeste 44 Oeste 0 -- -- 63
2020-03-05 11:00:00 15.3 19 Oeste 37 Oeste 0 -- -- 60
2020-03-05 10:00:00 14.3 6 Sudoeste 14 Sur 0 -- -- 63
2020-03-05 09:00:00 11.5 3 Sudeste 16 Sur 0 -- -- 71
2020-03-05 08:00:00 11 5 Sur 16 Sur 0 -- -- 67
2020-03-05 07:00:00 10.2 4 Este 12 Sudeste 0 -- -- 68
2020-03-05 06:00:00 10.1 3 Este 10 Norte 0 -- -- 70
2020-03-05 05:00:00 10.4 0 Calma 8 Sudeste 0 -- -- 71
2020-03-05 04:00:00 10.4 5 Este 11 Sudeste 0 -- -- 75
2020-03-05 03:00:00 10.6 4 Este 13 Norte 0 -- -- 77
2020-03-05 02:00:00 11.1 4 Nordeste 8 Este 0 -- -- 78
2020-03-05 01:00:00 11.1 4 Sudeste 9 Este 0 -- -- 77
2020-03-05 00:00:00 11.4 6 Sudeste 11 Sudeste 0 -- -- 76
2020-03-04 23:00:00 12.4 3 Norte 13 Sudeste 0 -- -- 73
2020-03-04 22:00:00 12.6 3 Este 17 Sudeste 0 -- -- 72
2020-03-04 21:00:00 13.4 7 Sudoeste 20 Sur 0 -- -- 70
2020-03-04 20:00:00 14.7 7 Oeste 26 Noroeste 0 -- -- 65
2020-03-04 19:00:00 17.3 9 Este 22 Este 0 -- -- 58
2020-03-04 18:00:00 19.5 8 Este 26 Noroeste 0 -- -- 49
2020-03-04 17:00:00 19.9 9 Noroeste 23 Nordeste 0 -- -- 46
2020-03-04 16:00:00 20.2 9 Norte 26 Noroeste 0 -- -- 45
2020-03-04 15:00:00 20.4 8 Sudoeste 28 Noroeste 0 -- -- 46
2020-03-04 14:00:00 19.4 9 Noroeste 27 Noroeste 0 -- -- 48
2020-03-04 13:00:00 19.1 11 Norte 31 Oeste 0 -- -- 36
2020-03-04 12:00:00 17.4 13 Oeste 36 Oeste 0 -- -- 48
2020-03-04 11:00:00 15.8 13 Oeste 21 Oeste 0 -- -- 55
2020-03-04 10:00:00 13.4 4 Sudeste 10 Este 0 -- -- 76
2020-03-04 09:00:00 10 3 Este 9 Sudeste 0 -- -- 89
2020-03-04 08:00:00 9.5 0 Calma 12 Sudeste 0 -- -- 87
2020-03-04 07:00:00 9.3 2 Sudeste 12 Sur 0 -- -- 86
2020-03-04 06:00:00 9.8 4 Este 12 Sur 0 -- -- 88
2020-03-04 05:00:00 10.4 3 Sudeste 15 Sur 0 -- -- 85
2020-03-04 04:00:00 10.8 4 Este 23 Norte 0 -- -- 83
2020-03-04 03:00:00 11.9 9 Noroeste 24 Noroeste 0 -- -- 79
2020-03-04 02:00:00 11.9 6 Noroeste 14 Oeste 0 -- -- 80
2020-03-04 01:00:00 11.9 2 Nordeste 12 Sudoeste 0 -- -- 80
2020-03-04 00:00:00 12.4 4 Oeste 21 Oeste 0 -- -- 78
2020-03-03 23:00:00 12.4 4 Oeste 17 Nordeste 0 -- -- 78
2020-03-03 22:00:00 12.4 4 Sudoeste 21 Noroeste 0 -- -- 77
2020-03-03 21:00:00 12.7 10 Noroeste 21 Norte 0 -- -- 76
2020-03-03 20:00:00 13.1 8 Oeste 27 Nordeste 0 -- -- 74
2020-03-03 19:00:00 13.8 4 Noroeste 28 Nordeste 0 -- -- 70
2020-03-03 18:00:00 13.8 5 Noroeste 26 Noroeste 0 -- -- 68
2020-03-03 17:00:00 14.3 19 Oeste 35 Oeste 0 -- -- 64
2020-03-03 16:00:00 15.2 17 Oeste 35 Oeste 0 -- -- 61
2020-03-03 15:00:00 15.7 23 Oeste 35 Oeste 0 -- -- 56
2020-03-03 14:00:00 16.8 16 Oeste 24 Oeste 0 -- -- 46
2020-03-03 13:00:00 16 11 Oeste 23 Oeste 0 -- -- 45
2020-03-03 12:00:00 14.3 8 Sudoeste 23 Oeste 0 -- -- 50
2020-03-03 11:00:00 12.5 6 Noroeste 18 Oeste 0 -- -- 55
2020-03-03 10:00:00 10.1 4 Noroeste 8 Oeste 0 -- -- 66
2020-03-03 09:00:00 8.3 3 Noroeste 8 Noroeste 0 -- -- 67
2020-03-03 08:00:00 7.5 4 Noroeste 10 Noroeste 0 -- -- 66
2020-03-03 07:00:00 7.5 0 Calma 6 Sur 0 -- -- 62
2020-03-03 06:00:00 8.4 3 Sur 15 Sur 0 -- -- 57
2020-03-03 05:00:00 9.4 4 Sudoeste 20 Nordeste 0 -- -- 55
2020-03-03 04:00:00 8.4 2 Sudoeste 13 Sudoeste 0 -- -- 66
2020-03-03 03:00:00 9.4 4 Noroeste 13 Noroeste 0 -- -- 66
2020-03-03 02:00:00 10.1 7 Norte 26 Norte 0 -- -- 63
2020-03-03 01:00:00 10.2 4 Norte 17 Nordeste 0 -- -- 68
2020-03-03 00:00:00 10.6 6 Norte 16 Norte 0 -- -- 68
2020-03-02 23:00:00 10.9 6 Noroeste 23 Oeste 0 -- -- 69
2020-03-02 22:00:00 11.3 9 Norte 22 Norte 0 -- -- 67
2020-03-02 21:00:00 11.6 8 Noroeste 19 Oeste 0 -- -- 63
2020-03-02 20:00:00 12.1 7 Noroeste 25 Norte 0 -- -- 60
2020-03-02 19:00:00 13.3 9 Oeste 38 Oeste 0 -- -- 60
2020-03-02 18:00:00 14.9 23 Oeste 46 Oeste 0 -- -- 58
2020-03-02 17:00:00 15.4 25 Oeste 48 Oeste 0 -- -- 61
2020-03-02 16:00:00 15.5 27 Oeste 52 Oeste 0 -- -- 64
2020-03-02 15:00:00 15.8 21 Oeste 57 Oeste 0 -- -- 59
2020-03-02 14:00:00 16.3 22 Oeste 58 Oeste 0 -- -- 61
2020-03-02 13:00:00 15.5 23 Oeste 52 Oeste 0 -- -- 69
2020-03-02 12:00:00 14 15 Oeste 42 Oeste 0 -- -- 83
2020-03-02 11:00:00 12.7 15 Oeste 42 Oeste 0.2 -- -- 90
2020-03-02 10:00:00 12.3 17 Oeste 35 Oeste 0.2 -- -- 90
2020-03-02 09:00:00 12 4 Noroeste 24 Noroeste 0.8 -- -- 89
2020-03-02 08:00:00 12.6 14 Noroeste 36 Noroeste 0.4 -- -- 80
2020-03-02 07:00:00 12.3 14 Oeste 44 Oeste 0.2 -- -- 86
2020-03-02 06:00:00 12.7 16 Oeste 43 Sudoeste 0 -- -- 81
2020-03-02 05:00:00 12.3 13 Oeste 40 Sudoeste 0 -- -- 80
2020-03-02 04:00:00 12 13 Oeste 31 Sudoeste 0 -- -- 82
2020-03-02 03:00:00 12 15 Oeste 39 Noroeste 0 -- -- 82
2020-03-02 02:00:00 11.9 12 Oeste 34 Noroeste 0 -- -- 83
2020-03-02 01:00:00 11.6 14 Noroeste 28 Oeste 0 -- -- 81
2020-03-02 00:00:00 11.1 4 Sudoeste 14 Sudeste 0 -- -- 84